Decoded Metar for EPMO ( in ) (IATA:) | Meteo·Mobile Aviation Weather
aviador You're here:

EPMO Decoded Metar

in
Report Time2019-03-23 00:30:00
UTC Time2019-03-23 00:50:36
Flight Rules vfr VFR
Wind120° at 04 kt
W.Decomp.*RWY 08: 3.1 kt HW 2.6 kt RCW
W.Rank120° ranks 16
Current wind is below 120° avg. (6.8)
Visibility9999 m
Phenomena:N/A
Clouds:N/A
Expected CloudBase > 2,800 ft AGL from Temp-Dew spread
CeilingNone
Temp02°C
Dew Point-5°C (60% RH)
AAT-2.0°C
QNH1031 hPa
Raw Report
EPMO 230030Z 12004KT CAVOK 02/M05 Q1031=

Extra information for EPMO:More info

Social comments